Time;durP1;ratioP1;P1;durP2;ratioP2;P2;SDS_P1;SDS_P2;PMS_P1;PMS_P2;Temp;Humidity;BMP_temperature;BMP_pressure;BME280_temperature;BME280_humidity;BME280_pressure;Samples;Min_cycle;Max_cycle;Signal;HPM_P1;HPM_P2
2022/05/21 00:02:11;;;;;;;3.42;2.42;;;;;;;15.68;100.00;96308.72;4971553;28;24445;-74
2022/05/21 00:04:41;;;;;;;3.05;1.63;;;;;;;15.80;100.00;96312.19;4971215;28;24450;-74
2022/05/21 00:07:08;;;;;;;3.20;1.80;;;;;;;15.73;100.00;96313.59;4971249;28;24441;-75
2022/05/21 00:09:35;;;;;;;6.53;1.90;;;;;;;15.66;100.00;96307.16;4970918;28;24871;-76
2022/05/21 00:12:01;;;;;;;3.40;2.30;;;;;;;15.64;100.00;96317.69;4971646;28;24535;-75
2022/05/21 00:14:28;;;;;;;2.47;1.70;;;;;;;15.62;100.00;96318.75;4971243;28;24529;-73
2022/05/21 00:16:54;;;;;;;2.92;1.48;;;;;;;15.56;100.00;96314.81;4971167;28;24473;-75
2022/05/21 00:19:21;;;;;;;8.95;2.03;;;;;;;15.56;100.00;96316.59;4971733;28;24446;-75
2022/05/21 00:21:49;;;;;;;3.90;1.85;;;;;;;15.42;100.00;96312.38;4955538;28;24449;-75
2022/05/21 00:24:15;;;;;;;3.03;1.80;;;;;;;15.40;100.00;96314.28;4971396;28;24807;-75
2022/05/21 00:26:41;;;;;;;3.95;1.73;;;;;;;15.45;100.00;96315.59;4971457;28;24504;-75
2022/05/21 00:29:08;;;;;;;2.13;1.63;;;;;;;15.33;100.00;96319.13;4971296;28;24445;-75
2022/05/21 00:31:35;;;;;;;5.00;1.93;;;;;;;15.34;100.00;96317.34;4971160;28;24444;-74
2022/05/21 00:34:03;;;;;;;3.80;1.90;;;;;;;15.18;100.00;96336.72;4970895;28;24441;-75
2022/05/21 00:36:30;;;;;;;2.92;1.38;;;;;;;15.16;100.00;96335.97;4971379;28;24488;-75
2022/05/21 00:38:58;;;;;;;2.53;1.77;;;;;;;15.14;100.00;96329.22;4971094;28;24528;-74
2022/05/21 00:41:24;;;;;;;3.33;1.80;;;;;;;15.15;100.00;96336.94;4971029;28;24437;-74
2022/05/21 00:43:53;;;;;;;3.47;1.70;;;;;;;15.21;100.00;96346.13;4971086;28;25079;-74
2022/05/21 00:46:22;;;;;;;5.30;2.17;;;;;;;15.00;100.00;96338.03;4971303;28;24460;-74
2022/05/21 00:48:56;;;;;;;2.80;1.73;;;;;;;15.10;100.00;96340.84;4970919;28;24516;-73
2022/05/21 00:51:26;;;;;;;1.92;1.50;;;;;;;15.11;100.00;96342.50;4971122;28;24430;-74
2022/05/21 00:53:56;;;;;;;4.50;1.58;;;;;;;15.27;100.00;96344.81;4971055;28;24810;-74
2022/05/21 00:56:25;;;;;;;2.42;1.52;;;;;;;15.23;100.00;96339.81;4970902;28;24436;-74
2022/05/21 01:01:42;;;;;;;3.38;1.58;;;;;;;15.08;100.00;96346.16;4971143;28;24485;-73
2022/05/21 01:04:08;;;;;;;3.50;1.50;;;;;;;15.03;100.00;96348.25;4971033;28;24447;-73
2022/05/21 01:06:36;;;;;;;3.00;1.60;;;;;;;14.83;100.00;96346.22;4970923;28;24461;-75
2022/05/21 01:09:03;;;;;;;2.33;1.50;;;;;;;14.66;100.00;96350.84;4970739;28;24442;-74
2022/05/21 01:11:31;;;;;;;5.10;1.77;;;;;;;14.70;100.00;96341.03;4970941;28;24434;-74
2022/05/21 01:13:59;;;;;;;3.00;1.45;;;;;;;14.86;100.00;96357.25;4970572;28;24445;-75
2022/05/21 01:16:25;;;;;;;2.30;1.40;;;;;;;14.95;100.00;96361.03;4970866;28;24449;-74
2022/05/21 01:18:52;;;;;;;1.85;1.35;;;;;;;15.16;100.00;96358.63;4970631;28;24442;-74
2022/05/21 01:21:18;;;;;;;2.70;1.50;;;;;;;15.04;100.00;96360.34;4971575;28;24441;-74
2022/05/21 01:23:46;;;;;;;4.35;1.60;;;;;;;15.09;100.00;96367.84;4974081;28;24446;-74
2022/05/21 01:26:17;;;;;;;1.90;1.63;;;;;;;14.95;100.00;96361.84;4973900;28;24997;-74
2022/05/21 01:28:43;;;;;;;2.70;1.35;;;;;;;15.05;100.00;96361.19;4974283;28;24449;-75
2022/05/21 01:31:10;;;;;;;5.50;1.73;;;;;;;15.05;100.00;96364.63;4974169;28;24500;-74
2022/05/21 01:33:40;;;;;;;3.10;1.42;;;;;;;15.32;100.00;96364.44;4973126;28;24441;-75
2022/05/21 01:36:08;;;;;;;1.70;1.30;;;;;;;15.23;100.00;96372.91;4973636;28;24437;-74
2022/05/21 01:38:37;;;;;;;3.40;1.67;;;;;;;15.51;100.00;96376.97;4973835;28;24444;-74
2022/05/21 01:41:05;;;;;;;1.67;1.33;;;;;;;15.45;100.00;96380.03;4973992;28;24449;-75
2022/05/21 01:46:17;;;;;;;2.67;1.50;;;;;;;15.26;100.00;96393.56;4966265;28;24453;-74
2022/05/21 01:48:44;;;;;;;1.90;1.70;;;;;;;14.97;100.00;96396.47;4973843;28;24438;-75
2022/05/21 01:51:11;;;;;;;3.45;2.17;;;;;;;14.90;100.00;96394.41;4973621;28;24464;-74
2022/05/21 01:53:39;;;;;;;2.60;1.60;;;;;;;14.92;100.00;96392.53;4973596;28;24437;-75
2022/05/21 01:56:08;;;;;;;3.80;1.60;;;;;;;14.98;100.00;96397.28;4968719;28;24438;-75
2022/05/21 01:58:35;;;;;;;2.00;1.50;;;;;;;14.96;100.00;96399.19;4973339;28;25058;-74
2022/05/21 02:01:01;;;;;;;1.52;1.35;;;;;;;14.83;100.00;96399.22;4973656;28;24438;-75
2022/05/21 02:03:28;;;;;;;3.40;2.00;;;;;;;14.92;100.00;96400.34;4973472;28;24844;-74
2022/05/21 02:05:55;;;;;;;3.55;1.85;;;;;;;14.81;100.00;96402.88;4973077;28;24457;-75
2022/05/21 02:08:21;;;;;;;2.55;1.80;;;;;;;14.76;100.00;96409.25;4973444;28;24445;-74
2022/05/21 02:10:48;;;;;;;4.25;2.10;;;;;;;14.56;100.00;96417.59;4973196;28;24449;-74
2022/05/21 02:13:18;;;;;;;2.60;2.40;;;;;;;14.41;100.00;96418.59;4973321;28;24437;-75
2022/05/21 02:15:45;;;;;;;5.85;2.47;;;;;;;14.15;100.00;96421.19;4973214;28;24432;-74
2022/05/21 02:18:12;;;;;;;5.03;2.40;;;;;;;14.00;100.00;96424.81;4973151;28;24440;-75
2022/05/21 02:20:39;;;;;;;3.65;2.22;;;;;;;13.85;100.00;96426.66;4973272;28;24442;-74
2022/05/21 02:23:06;;;;;;;2.58;2.13;;;;;;;14.00;100.00;96427.41;4973324;28;24437;-74
2022/05/21 02:25:32;;;;;;;3.15;2.47;;;;;;;13.95;100.00;96417.31;4972557;28;24511;-74
2022/05/21 02:27:59;;;;;;;2.83;2.50;;;;;;;13.68;100.00;96430.38;4973026;28;24500;-75
2022/05/21 02:30:27;;;;;;;3.40;2.30;;;;;;;13.49;100.00;96429.84;4973158;28;25258;-75
2022/05/21 02:32:53;;;;;;;3.30;2.20;;;;;;;13.57;100.00;96430.19;4972427;28;25191;-75
2022/05/21 02:35:20;;;;;;;4.07;2.58;;;;;;;13.61;100.00;96428.22;4972630;28;24438;-74
2022/05/21 02:40:31;;;;;;;2.95;2.20;;;;;;;13.24;100.00;96426.22;4973466;28;24460;-72
2022/05/21 02:42:57;;;;;;;3.08;2.20;;;;;;;13.05;100.00;96426.50;4972849;28;24461;-72
2022/05/21 02:45:28;;;;;;;3.33;1.83;;;;;;;12.91;100.00;96431.72;4972296;28;24457;-72
2022/05/21 02:47:55;;;;;;;3.88;1.70;;;;;;;12.94;100.00;96441.94;4957736;28;24445;-75
2022/05/21 02:50:24;;;;;;;2.50;2.10;;;;;;;13.16;100.00;96440.59;4973004;28;24469;-73
2022/05/21 02:52:51;;;;;;;4.63;2.72;;;;;;;12.99;100.00;96439.88;4972795;28;24433;-73
2022/05/21 02:55:18;;;;;;;3.83;2.72;;;;;;;12.74;100.00;96448.34;4972318;28;24434;-73
2022/05/21 02:57:45;;;;;;;3.20;2.50;;;;;;;12.69;100.00;96441.75;4972429;28;24437;-73
2022/05/21 03:00:15;;;;;;;4.30;2.60;;;;;;;12.67;100.00;96441.00;4972698;28;24538;-73
2022/05/21 03:02:43;;;;;;;2.90;2.40;;;;;;;12.67;100.00;96441.00;4972587;28;24449;-72
2022/05/21 03:05:10;;;;;;;4.45;3.15;;;;;;;12.62;100.00;96446.50;4972075;28;24461;-72
2022/05/21 03:07:38;;;;;;;3.00;2.55;;;;;;;12.65;100.00;96443.72;4972121;28;24444;-74
2022/05/21 03:12:53;;;;;;;6.78;3.05;;;;;;;12.55;100.00;96451.22;4968568;28;24481;-75
2022/05/21 03:15:22;;;;;;;5.55;2.55;;;;;;;12.52;100.00;96447.97;4971833;28;24440;-75
2022/05/21 03:17:50;;;;;;;5.38;2.60;;;;;;;12.50;100.00;96458.47;4971860;28;24469;-75
2022/05/21 03:20:19;;;;;;;3.50;2.25;;;;;;;12.46;100.00;96462.16;4971921;28;24484;-75
2022/05/21 03:22:46;;;;;;;3.45;2.58;;;;;;;12.47;100.00;96463.81;4971791;28;24537;-75
2022/05/21 03:25:13;;;;;;;1.92;1.80;;;;;;;12.48;100.00;96473.28;4971296;28;24438;-75
2022/05/21 03:27:40;;;;;;;4.78;2.25;;;;;;;12.56;100.00;96471.06;4971147;28;24469;-75
2022/05/21 03:30:09;;;;;;;3.25;2.17;;;;;;;12.54;100.00;96472.09;4971385;28;24433;-75
2022/05/21 03:32:36;;;;;;;2.83;2.17;;;;;;;12.48;100.00;96464.66;4970993;28;24768;-75
2022/05/21 03:35:04;;;;;;;4.63;2.28;;;;;;;12.38;100.00;96463.53;4969963;28;24447;-74
2022/05/21 03:37:31;;;;;;;4.43;2.65;;;;;;;12.31;100.00;96450.06;4971159;28;24433;-74
2022/05/21 03:39:57;;;;;;;2.60;2.03;;;;;;;12.31;100.00;96461.31;4971627;28;24437;-75
2022/05/21 03:42:24;;;;;;;3.22;2.10;;;;;;;12.30;100.00;96458.78;4971741;28;25037;-75
2022/05/21 03:44:50;;;;;;;3.20;2.35;;;;;;;12.19;100.00;96464.59;4970918;28;24570;-75
2022/05/21 03:47:17;;;;;;;3.17;2.27;;;;;;;12.14;100.00;96471.81;4971730;28;24848;-74
2022/05/21 03:49:43;;;;;;;3.58;2.58;;;;;;;12.15;100.00;96473.50;4971561;28;24499;-74
2022/05/21 03:52:11;;;;;;;8.10;2.80;;;;;;;12.06;100.00;96474.03;4971489;28;24464;-74
2022/05/21 03:54:37;;;;;;;2.95;2.58;;;;;;;12.14;100.00;96483.97;4971435;28;24512;-74
2022/05/21 03:57:05;;;;;;;3.97;2.40;;;;;;;12.35;100.00;96483.56;4971449;28;24441;-74
2022/05/21 03:59:33;;;;;;;4.85;2.90;;;;;;;12.45;100.00;96488.22;4971452;28;24880;-74
2022/05/21 04:01:59;;;;;;;2.22;2.00;;;;;;;12.41;100.00;96489.31;4971528;28;25025;-74
2022/05/21 04:04:26;;;;;;;2.95;2.20;;;;;;;12.40;100.00;96490.25;4971069;28;24442;-74
2022/05/21 04:06:52;;;;;;;4.57;2.28;;;;;;;12.38;100.00;96492.94;4971292;28;24490;-75
2022/05/21 04:09:20;;;;;;;3.83;2.42;;;;;;;12.26;100.00;96491.06;4971481;28;24493;-74
2022/05/21 04:11:46;;;;;;;3.47;2.45;;;;;;;12.24;100.00;96491.16;4971558;28;24434;-75
2022/05/21 04:14:14;;;;;;;3.88;2.25;;;;;;;12.13;100.00;96495.31;4971124;28;24445;-74
2022/05/21 04:16:41;;;;;;;3.80;2.40;;;;;;;12.11;100.00;96490.19;4955656;28;24429;-74
2022/05/21 04:19:07;;;;;;;6.28;2.28;;;;;;;12.17;100.00;96495.03;4971205;28;24445;-75
2022/05/21 04:21:33;;;;;;;4.90;2.80;;;;;;;12.14;100.00;96479.63;4971337;28;25003;-75
2022/05/21 04:24:00;;;;;;;2.47;2.28;;;;;;;12.37;100.00;96486.06;4971350;28;24437;-75
2022/05/21 04:26:28;;;;;;;2.83;2.13;;;;;;;12.58;100.00;96491.78;4970663;28;25018;-75
2022/05/21 04:28:54;;;;;;;2.72;1.90;;;;;;;12.75;100.00;96494.19;4971322;28;24441;-76
2022/05/21 04:31:21;;;;;;;4.72;2.20;;;;;;;12.86;100.00;96496.16;4971235;28;25183;-76
2022/05/21 04:33:47;;;;;;;5.03;2.70;;;;;;;12.83;100.00;96504.16;4970936;28;24464;-75
2022/05/21 04:36:19;;;;;;;3.33;2.10;;;;;;;12.84;100.00;96496.25;4971185;28;24430;-75
2022/05/21 04:38:47;;;;;;;3.67;2.08;;;;;;;13.12;100.00;96491.13;4971256;28;24437;-75
2022/05/21 04:41:13;;;;;;;3.00;2.22;;;;;;;13.26;100.00;96499.78;4971073;28;24524;-75
2022/05/21 04:43:41;;;;;;;2.95;2.33;;;;;;;13.44;100.00;96502.19;4971185;28;24437;-75
2022/05/21 04:46:09;;;;;;;3.90;2.50;;;;;;;13.43;100.00;96500.53;4971482;28;24460;-75
2022/05/21 04:48:35;;;;;;;3.47;2.20;;;;;;;13.58;100.00;96496.94;4971035;28;24516;-75
2022/05/21 04:51:04;;;;;;;2.90;1.85;;;;;;;13.57;100.00;96492.66;4971225;28;24476;-75
2022/05/21 04:53:31;;;;;;;3.65;1.95;;;;;;;13.49;100.00;96500.13;4970865;28;24508;-75
2022/05/21 04:55:58;;;;;;;6.57;2.50;;;;;;;13.64;100.00;96493.94;4972366;28;24437;-75
2022/05/21 04:58:24;;;;;;;2.28;1.83;;;;;;;13.76;99.29;96494.94;4974794;28;24481;-75
2022/05/21 05:00:52;;;;;;;4.15;2.25;;;;;;;13.85;98.88;96496.13;4974808;28;24444;-76
2022/05/21 05:03:19;;;;;;;8.20;2.10;;;;;;;13.86;98.85;96503.00;4974716;28;24492;-75
2022/05/21 05:05:47;;;;;;;3.30;2.10;;;;;;;13.82;99.60;96499.75;4974498;28;24438;-75
2022/05/21 05:08:15;;;;;;;3.25;2.20;;;;;;;13.59;100.00;96497.78;4974509;28;24440;-76
2022/05/21 05:10:42;;;;;;;1.77;1.50;;;;;;;13.79;99.46;96497.34;4974566;28;24442;-76
2022/05/21 05:13:09;;;;;;;3.17;1.80;;;;;;;13.63;97.45;96500.09;4974522;28;24442;-76
2022/05/21 05:15:37;;;;;;;2.67;1.85;;;;;;;13.59;99.63;96503.00;4974213;28;24801;-75
2022/05/21 05:18:07;;;;;;;2.83;1.80;;;;;;;13.62;100.00;96498.44;4974483;28;24441;-76
2022/05/21 05:20:33;;;;;;;2.58;1.55;;;;;;;13.85;97.15;96502.16;4974485;28;24441;-75
2022/05/21 05:22:59;;;;;;;3.20;1.67;;;;;;;13.94;96.38;96493.78;4974424;28;24438;-75
2022/05/21 05:25:27;;;;;;;2.83;1.60;;;;;;;13.66;99.45;96492.09;4974021;28;24479;-75
2022/05/21 05:27:53;;;;;;;3.05;1.90;;;;;;;13.69;98.43;96494.50;4973841;28;24472;-74
2022/05/21 05:30:22;;;;;;;2.08;1.80;;;;;;;13.64;98.16;96488.72;4974471;28;24496;-74
2022/05/21 05:32:49;;;;;;;3.85;2.08;;;;;;;13.59;99.09;96488.19;4974264;28;24442;-75
2022/05/21 05:35:17;;;;;;;3.45;2.15;;;;;;;13.45;100.00;96498.63;4973975;28;24863;-74
2022/05/21 05:37:44;;;;;;;2.53;1.70;;;;;;;13.47;99.99;96500.22;4973339;28;24429;-74
2022/05/21 05:40:14;;;;;;;5.82;1.77;;;;;;;13.74;97.84;96497.63;4974545;28;24820;-74
2022/05/21 05:42:41;;;;;;;3.53;1.80;;;;;;;13.92;98.35;96495.63;4974478;28;24970;-74
2022/05/21 05:45:10;;;;;;;5.03;2.07;;;;;;;13.60;99.14;96499.44;4973431;28;24888;-75
2022/05/21 05:47:37;;;;;;;3.22;1.77;;;;;;;13.51;98.34;96501.69;4974093;28;24456;-74
2022/05/21 05:50:04;;;;;;;4.43;1.85;;;;;;;13.64;99.53;96503.53;4973739;28;24433;-75
2022/05/21 05:52:32;;;;;;;2.97;1.52;;;;;;;13.74;100.00;96507.22;4973756;28;24441;-75
2022/05/21 05:54:58;;;;;;;4.10;2.00;;;;;;;13.42;100.00;96501.44;4973382;28;24506;-75
2022/05/21 05:57:25;;;;;;;3.55;2.00;;;;;;;13.43;99.13;96500.53;4973837;28;24839;-74
2022/05/21 05:59:51;;;;;;;5.05;2.00;;;;;;;13.48;98.70;96506.25;4973617;28;24448;-74
2022/05/21 06:05:04;;;;;;;3.60;1.90;;;;;;;13.54;98.50;96508.50;4973141;28;24461;-74
2022/05/21 06:07:31;;;;;;;3.67;1.67;;;;;;;13.73;98.77;96497.75;4970870;28;24895;-75
2022/05/21 06:10:02;;;;;;;4.28;1.88;;;;;;;13.67;98.67;96501.56;4971210;28;24496;-74
2022/05/21 06:12:29;;;;;;;3.30;1.70;;;;;;;14.15;92.74;96504.53;4967944;28;24468;-74
2022/05/21 06:14:56;;;;;;;5.03;1.83;;;;;;;14.26;94.01;96511.66;4971752;28;24875;-74
2022/05/21 06:17:22;;;;;;;4.10;1.55;;;;;;;14.48;93.03;96504.09;4972492;28;24433;-74
2022/05/21 06:19:49;;;;;;;2.42;1.50;;;;;;;14.65;92.36;96505.63;4972493;28;24445;-74
2022/05/21 06:22:16;;;;;;;3.00;1.37;;;;;;;14.63;90.52;96510.09;4972826;28;24441;-74
2022/05/21 06:24:44;;;;;;;1.93;1.20;;;;;;;14.41;88.65;96520.25;4972616;28;24469;-73
2022/05/21 06:27:10;;;;;;;2.08;1.23;;;;;;;14.59;85.99;96519.06;4964363;28;24500;-74
2022/05/21 06:29:37;;;;;;;4.95;1.40;;;;;;;14.48;85.72;96518.91;4979864;28;24444;-74
2022/05/21 06:32:04;;;;;;;3.42;1.40;;;;;;;14.34;83.39;96529.41;4974526;28;24828;-75
2022/05/21 06:34:32;;;;;;;2.90;1.15;;;;;;;14.50;86.52;96517.06;4971033;28;24445;-74
2022/05/21 06:37:04;;;;;;;1.95;1.08;;;;;;;14.57;86.72;96514.88;4972422;28;24444;-75
2022/05/21 06:39:31;;;;;;;2.97;1.10;;;;;;;14.58;82.90;96520.00;4972396;28;24528;-75
2022/05/21 06:41:59;;;;;;;2.90;1.35;;;;;;;14.54;83.75;96515.09;4972335;28;24986;-75
2022/05/21 06:44:26;;;;;;;2.00;1.08;;;;;;;14.96;83.66;96522.63;4972709;28;24445;-75
2022/05/21 06:46:53;;;;;;;2.57;1.10;;;;;;;14.98;83.19;96522.50;4972586;28;24492;-75
2022/05/21 06:49:19;;;;;;;2.65;1.10;;;;;;;15.04;83.56;96523.88;4972240;28;24554;-75
2022/05/21 06:51:46;;;;;;;3.58;1.00;;;;;;;15.37;79.42;96518.91;4972658;28;24433;-74
2022/05/21 06:54:12;;;;;;;2.17;1.00;;;;;;;15.03;78.92;96524.81;4959643;28;25051;-74
2022/05/21 06:56:40;;;;;;;2.10;0.80;;;;;;;14.67;79.67;96516.75;4972619;28;24433;-74
2022/05/21 06:59:08;;;;;;;1.92;0.77;;;;;;;14.83;81.03;96523.53;4971968;28;24449;-74
2022/05/21 07:01:34;;;;;;;2.38;1.00;;;;;;;14.93;77.13;96522.81;4972130;28;24429;-75
2022/05/21 07:04:01;;;;;;;1.80;1.00;;;;;;;15.02;78.37;96521.38;4969490;28;24437;-76
2022/05/21 07:09:11;;;;;;;1.02;0.50;;;;;;;15.62;76.98;96515.41;4971176;28;24445;-76
2022/05/21 07:11:38;;;;;;;1.00;0.50;;;;;;;16.02;72.12;96514.34;4972358;28;24488;-76
2022/05/21 07:14:04;;;;;;;1.58;0.60;;;;;;;15.55;75.31;96521.19;4971754;28;24437;-76
2022/05/21 07:16:32;;;;;;;2.38;0.82;;;;;;;15.34;75.14;96516.50;4971621;28;24505;-76
2022/05/21 07:18:59;;;;;;;1.27;0.60;;;;;;;15.96;71.60;96511.25;4970385;28;24475;-73
2022/05/21 07:21:25;;;;;;;1.60;0.93;;;;;;;15.87;73.87;96503.22;4971834;28;24533;-72
2022/05/21 07:23:52;;;;;;;1.80;0.75;;;;;;;16.07;73.97;96512.25;4971204;28;24445;-73
2022/05/21 07:26:18;;;;;;;1.13;0.45;;;;;;;15.60;75.22;96506.03;4971354;28;24448;-72
2022/05/21 07:28:45;;;;;;;1.27;0.70;;;;;;;15.80;73.62;96496.81;4971028;28;24519;-73
2022/05/21 07:31:12;;;;;;;1.83;0.70;;;;;;;15.80;73.33;96499.41;4972001;28;24440;-74
2022/05/21 07:33:40;;;;;;;1.42;0.77;;;;;;;16.23;72.37;96489.25;4971903;28;24441;-76
2022/05/21 07:36:07;;;;;;;2.40;0.60;;;;;;;16.40;70.57;96496.69;4970929;28;24441;-75
2022/05/21 07:38:33;;;;;;;1.63;0.57;;;;;;;16.41;67.73;96500.13;4971638;28;24438;-76
2022/05/21 07:40:59;;;;;;;2.55;0.50;;;;;;;16.08;69.06;96506.06;4970531;28;24445;-76
2022/05/21 07:43:30;;;;;;;1.00;0.40;;;;;;;16.12;69.40;96512.75;4970930;28;24433;-77
2022/05/21 07:45:57;;;;;;;0.90;0.40;;;;;;;16.72;66.87;96500.44;4972150;28;24905;-76
2022/05/21 07:48:25;;;;;;;1.85;0.63;;;;;;;16.58;68.08;96510.19;4971343;28;24460;-76
2022/05/21 07:50:55;;;;;;;1.48;0.50;;;;;;;16.85;68.39;96516.91;4971229;28;24877;-75
2022/05/21 07:53:23;;;;;;;2.40;0.40;;;;;;;16.69;68.79;96514.59;4971330;28;24441;-75
2022/05/21 07:55:51;;;;;;;1.10;0.50;;;;;;;16.72;66.99;96511.72;4971434;28;24437;-75
2022/05/21 07:58:18;;;;;;;0.70;0.40;;;;;;;17.36;63.85;96511.25;4970375;28;24497;-75
2022/05/21 08:00:45;;;;;;;1.40;0.40;;;;;;;16.96;63.67;96506.47;4970131;28;24441;-75
2022/05/21 08:03:12;;;;;;;0.75;0.40;;;;;;;16.81;66.75;96508.47;4969226;28;24990;-75
2022/05/21 08:05:41;;;;;;;3.17;0.85;;;;;;;17.03;67.35;96504.22;4970002;28;24856;-75
2022/05/21 08:08:09;;;;;;;0.97;0.50;;;;;;;17.00;65.59;96509.69;4970945;28;24464;-75
2022/05/21 08:10:37;;;;;;;0.90;0.50;;;;;;;17.25;65.83;96506.84;4970568;28;24442;-75
2022/05/21 08:13:03;;;;;;;1.73;0.50;;;;;;;17.18;63.67;96501.25;4971442;28;24533;-76
2022/05/21 08:15:30;;;;;;;0.82;0.43;;;;;;;17.29;64.68;96489.09;4970900;28;24440;-75
2022/05/21 08:17:57;;;;;;;2.05;0.60;;;;;;;17.10;64.59;96497.56;4971147;28;24447;-76
2022/05/21 08:20:23;;;;;;;1.15;0.50;;;;;;;17.32;63.60;96491.50;4956861;28;24441;-77
2022/05/21 08:28:19;;;;;;;2.15;0.60;;;;;;;17.11;63.26;96504.47;4970301;28;24464;-74
2022/05/21 08:30:48;;;;;;;1.88;0.50;;;;;;;17.44;63.59;96500.16;4972841;28;24453;-74
2022/05/21 08:33:16;;;;;;;1.77;0.57;;;;;;;17.86;62.11;96495.94;4974005;28;24444;-75
2022/05/21 08:35:43;;;;;;;1.52;0.32;;;;;;;18.42;61.62;96495.72;4974674;28;24437;-77
2022/05/21 08:38:12;;;;;;;0.47;0.30;;;;;;;17.77;58.78;96488.84;4973786;28;24430;-76
2022/05/21 08:40:45;;;;;;;1.23;0.47;;;;;;;18.25;58.32;96493.69;4976271;28;24462;-75
2022/05/21 08:43:20;;;;;;;0.47;0.38;;;;;;;18.10;58.20;96487.91;4965770;28;24442;-74
2022/05/21 08:46:02;;;;;;;1.45;0.60;;;;;;;18.46;57.07;96484.00;4975430;28;24425;-76
2022/05/21 08:48:32;;;;;;;1.20;0.47;;;;;;;18.10;58.05;96491.34;4975144;28;24473;-76
2022/05/21 08:51:04;;;;;;;3.03;0.50;;;;;;;18.62;57.69;96489.66;4975139;28;24472;-75
2022/05/21 08:53:32;;;;;;;1.17;0.40;;;;;;;18.94;54.61;96494.00;4975971;28;24907;-76
2022/05/21 08:56:05;;;;;;;0.40;0.40;;;;;;;19.19;52.66;96489.28;4975455;28;24469;-77
2022/05/21 08:58:37;;;;;;;2.75;0.50;;;;;;;19.46;52.39;96478.19;4975535;28;24532;-76
2022/05/21 09:01:03;;;;;;;0.82;0.30;;;;;;;19.20;52.44;96477.81;4975264;28;24445;-76
2022/05/21 09:03:30;;;;;;;3.70;0.50;;;;;;;19.44;53.17;96477.50;4975097;28;24488;-76
2022/05/21 09:06:07;;;;;;;1.23;0.50;;;;;;;18.36;54.13;96475.25;4975491;28;24457;-76
2022/05/21 09:08:40;;;;;;;1.90;0.70;;;;;;;18.47;54.67;96477.81;4974832;28;24489;-76
2022/05/21 09:11:14;;;;;;;1.38;0.50;;;;;;;19.15;51.90;96472.97;4975367;28;24441;-73
2022/05/21 09:13:44;;;;;;;0.63;0.37;;;;;;;19.29;50.85;96467.38;4974816;28;24962;-73
2022/05/21 09:18:57;;;;;;;0.90;0.40;;;;;;;19.63;50.29;96468.88;4974648;28;24476;-74
2022/05/21 09:21:26;;;;;;;1.27;0.30;;;;;;;18.81;50.90;96473.22;4974810;28;24425;-73
2022/05/21 09:23:54;;;;;;;0.60;0.40;;;;;;;19.00;48.38;96454.13;4974903;28;24859;-73
2022/05/21 09:26:24;;;;;;;1.15;0.50;;;;;;;18.95;49.31;96469.44;4974968;28;24440;-74
2022/05/21 09:28:50;;;;;;;0.55;0.35;;;;;;;18.58;50.95;96462.03;4974635;28;24468;-74
2022/05/21 09:31:28;;;;;;;1.02;0.57;;;;;;;18.75;51.18;96459.78;4974686;28;24529;-74
2022/05/21 09:33:55;;;;;;;0.73;0.40;;;;;;;19.01;50.81;96455.78;4974545;28;24421;-76
2022/05/21 09:36:35;;;;;;;1.13;0.40;;;;;;;19.32;49.07;96447.91;4974472;28;25152;-76
2022/05/21 09:39:01;;;;;;;0.80;0.30;;;;;;;19.78;45.27;96454.38;4974312;28;24469;-76
2022/05/21 09:41:32;;;;;;;1.50;0.50;;;;;;;19.55;45.65;96440.63;4973738;28;24492;-74
2022/05/21 09:46:47;;;;;;;0.80;0.40;;;;;;;19.72;45.01;96439.97;4973376;28;24610;-73
2022/05/21 09:49:22;;;;;;;3.75;0.80;;;;;;;20.05;48.56;96449.25;4970720;28;24458;-76
2022/05/21 09:51:57;;;;;;;0.87;0.40;;;;;;;19.42;44.46;96434.75;4971893;28;24531;-76
2022/05/21 09:54:26;;;;;;;1.08;0.50;;;;;;;19.95;44.63;96447.59;4970386;28;24461;-78
2022/05/21 09:56:57;;;;;;;1.17;0.52;;;;;;;19.54;42.51;96452.94;4966060;28;24434;-75
2022/05/21 09:59:28;;;;;;;2.95;0.43;;;;;;;19.60;42.38;96451.53;4973320;28;25057;-74
2022/05/21 10:01:57;;;;;;;1.25;0.50;;;;;;;19.61;43.00;96441.84;4973841;28;24437;-74
2022/05/21 10:04:28;;;;;;;1.00;0.60;;;;;;;20.18;41.86;96442.91;4971166;28;24437;-74
2022/05/21 10:07:03;;;;;;;1.52;0.40;;;;;;;19.37;43.05;96439.59;4974027;28;25011;-74
2022/05/21 10:12:25;;;;;;;3.53;0.50;;;;;;;19.48;42.04;96435.06;4973976;28;24471;-74
2022/05/21 10:15:02;;;;;;;2.08;0.52;;;;;;;19.31;42.67;96435.69;4973614;28;24437;-74
2022/05/21 10:17:32;;;;;;;2.30;0.70;;;;;;;20.05;41.86;96436.13;4973586;28;24967;-74
2022/05/21 10:20:05;;;;;;;1.10;0.50;;;;;;;20.37;42.07;96432.38;4973655;28;24433;-74
2022/05/21 10:22:43;;;;;;;2.03;1.02;;;;;;;20.32;41.32;96426.72;4974003;28;24421;-74
2022/05/21 10:25:14;;;;;;;1.15;0.47;;;;;;;20.41;39.88;96431.13;4973514;28;24488;-74
2022/05/21 10:28:01;;;;;;;1.58;0.57;;;;;;;20.13;38.68;96417.00;4972077;28;24466;-74
2022/05/21 10:30:35;;;;;;;1.90;0.60;;;;;;;20.89;39.17;96411.75;4965007;28;24445;-74
2022/05/21 10:33:13;;;;;;;1.00;0.60;;;;;;;20.82;39.61;96423.84;4972863;28;25026;-74
2022/05/21 10:36:01;;;;;;;3.20;0.70;;;;;;;21.34;38.59;96413.66;4965523;28;24448;-74
2022/05/21 10:39:02;;;;;;;0.95;0.52;;;;;;;20.75;39.52;96422.75;4964744;28;24449;-74
2022/05/21 10:41:44;;;;;;;0.98;0.55;;;;;;;20.45;40.15;96419.34;4973270;28;24445;-74
2022/05/21 10:44:27;;;;;;;2.58;0.80;;;;;;;20.34;39.14;96422.13;4969224;28;24452;-75
2022/05/21 10:47:02;;;;;;;2.78;0.65;;;;;;;20.01;38.04;96413.69;4973064;28;24446;-74
2022/05/21 10:50:04;;;;;;;2.05;0.60;;;;;;;19.97;37.27;96412.31;4971432;28;24457;-74
2022/05/21 10:52:47;;;;;;;2.33;0.70;;;;;;;19.97;37.76;96403.59;4973045;28;24445;-75
2022/05/21 10:55:20;;;;;;;2.85;0.85;;;;;;;20.38;37.37;96399.00;4970103;28;24434;-75
2022/05/21 10:58:05;;;;;;;5.38;0.65;;;;;;;20.17;36.20;96404.41;4972685;28;24448;-73
2022/05/21 11:00:40;;;;;;;4.18;0.60;;;;;;;20.08;38.44;96400.00;4964343;28;24433;-74
2022/05/21 11:03:50;;;;;;;0.95;0.40;;;;;;;20.35;38.45;96396.63;4972020;28;24444;-74
2022/05/21 11:06:30;;;;;;;1.20;0.50;;;;;;;20.30;36.19;96397.91;4962234;28;24469;-75
2022/05/21 11:09:07;;;;;;;2.35;0.77;;;;;;;20.61;36.11;96396.88;4971067;28;24483;-75
2022/05/21 11:11:44;;;;;;;1.60;0.70;;;;;;;20.52;35.78;96395.94;4961584;28;24441;-76
2022/05/21 11:14:16;;;;;;;5.00;0.60;;;;;;;20.34;35.50;96401.06;4970984;28;24451;-74
2022/05/21 11:16:48;;;;;;;1.33;0.73;;;;;;;20.35;35.65;96399.28;4964852;28;24437;-74
2022/05/21 11:19:18;;;;;;;1.90;1.00;;;;;;;20.19;35.60;96398.06;4966904;28;24437;-74
2022/05/21 11:21:49;;;;;;;1.02;0.50;;;;;;;20.18;36.13;96396.41;4971525;28;24437;-74
2022/05/21 11:24:21;;;;;;;0.82;0.40;;;;;;;20.30;36.23;96391.81;4971214;28;24441;-74
2022/05/21 11:26:52;;;;;;;0.70;0.52;;;;;;;20.41;38.02;96398.72;4972426;28;24613;-74
2022/05/21 11:29:24;;;;;;;4.90;0.73;;;;;;;20.59;36.19;96390.94;4972613;28;24843;-74
2022/05/21 11:37:29;;;;;;;2.60;0.82;;;;;;;20.48;36.38;96397.19;4972254;28;24429;-74
2022/05/21 11:39:58;;;;;;;1.50;0.70;;;;;;;20.52;34.76;96388.06;4972119;28;24440;-75
2022/05/21 11:42:28;;;;;;;4.30;0.53;;;;;;;20.50;36.73;96379.47;4966239;28;24422;-74
2022/05/21 11:44:55;;;;;;;1.58;0.57;;;;;;;20.64;36.16;96386.06;4957535;28;25095;-74
2022/05/21 11:47:46;;;;;;;2.30;0.40;;;;;;;20.52;36.67;96388.88;4972166;28;24449;-74
2022/05/21 11:50:20;;;;;;;3.17;0.98;;;;;;;20.78;38.80;96386.44;4970345;28;24413;-75
2022/05/21 11:52:56;;;;;;;1.30;0.57;;;;;;;20.67;35.21;96384.00;4959136;28;25050;-75
2022/05/21 11:55:25;;;;;;;1.27;0.37;;;;;;;20.91;34.62;96388.75;4971771;28;24776;-74
2022/05/21 11:57:54;;;;;;;2.67;0.70;;;;;;;20.79;34.34;96382.84;4972076;28;24437;-74
2022/05/21 12:00:50;;;;;;;2.35;0.80;;;;;;;20.88;34.63;96380.31;4972166;28;24433;-74
2022/05/21 12:03:23;;;;;;;1.42;0.63;;;;;;;21.15;35.23;96382.97;4971440;28;24465;-73
2022/05/21 12:06:12;;;;;;;1.08;0.55;;;;;;;20.77;33.15;96376.91;4968414;28;24436;-74
2022/05/21 12:08:49;;;;;;;3.20;1.85;;;;;;;21.01;36.11;96379.00;4967216;28;24469;-73
2022/05/21 12:11:44;;;;;;;7.88;2.88;;;;;;;20.61;34.23;96376.66;4960644;28;24544;-73
2022/05/21 12:14:18;;;;;;;1.67;1.00;;;;;;;20.97;35.85;96379.44;4970029;28;25012;-75
2022/05/21 12:16:51;;;;;;;1.60;0.80;;;;;;;20.79;35.05;96390.72;4976125;28;24433;-75